DKH206 YMML-YSSY
Flight info
| Callsign | DKH206 |
|---|---|
| Flight time | 1h 3m |
| Altitude | 35000 |
| Route | DOSEL2/34 DOSEL Y59 RIVET |
| Aircraft | A21N/M-SDE2E3FGHIRWXY/LB1 |
Departure
| Time | 2026-05-04 11:01 |
|---|---|
| Airport | Melbourne Airport (YMML) |
Arrival
| Time | 2026-05-04 12:05 |
|---|---|
| Airport | Sydney Kingsford Smith International Airport (YSSY) |
| Time | Latitude | Longitude | Altitude | Speed | Heading |
|---|---|---|---|---|---|
| 2026-05-04 10:08 | -37.67350 | 144.84677 | 389 ft | 0 kts | 352° |
| 2026-05-04 10:39 | -37.67374 | 144.84682 | 388 ft | 2 kts | 339° |
| 2026-05-04 10:39 | -37.67388 | 144.84691 | 388 ft | 2 kts | 324° |
| 2026-05-04 10:39 | -37.67399 | 144.84703 | 387 ft | 2 kts | 309° |
| 2026-05-04 10:40 | -37.67408 | 144.84718 | 387 ft | 2 kts | 295° |
| 2026-05-04 10:40 | -37.67413 | 144.84737 | 388 ft | 2 kts | 281° |
| 2026-05-04 10:40 | -37.67415 | 144.84755 | 388 ft | 2 kts | 266° |
| 2026-05-04 10:40 | -37.67414 | 144.84764 | 388 ft | 1 kts | 257° |
| 2026-05-04 10:41 | -37.67413 | 144.84770 | 389 ft | 0 kts | 260° |
| 2026-05-04 10:43 | -37.67413 | 144.84769 | 388 ft | 1 kts | 260° |
| 2026-05-04 10:44 | -37.67471 | 144.84453 | 379 ft | 0 kts | 262° |
| 2026-05-04 10:45 | -37.67471 | 144.84451 | 379 ft | 1 kts | 262° |
| 2026-05-04 10:45 | -37.67474 | 144.84421 | 378 ft | 5 kts | 262° |
| 2026-05-04 10:46 | -37.67481 | 144.84360 | 377 ft | 8 kts | 262° |
| 2026-05-04 10:46 | -37.67491 | 144.84273 | 375 ft | 11 kts | 262° |
| 2026-05-04 10:46 | -37.67513 | 144.84168 | 373 ft | 13 kts | 239° |
| 2026-05-04 10:46 | -37.67603 | 144.84137 | 371 ft | 15 kts | 169° |
| 2026-05-04 10:47 | -37.67707 | 144.84158 | 368 ft | 9 kts | 171° |
| 2026-05-04 10:47 | -37.67714 | 144.84160 | 368 ft | 0 kts | 171° |
| 2026-05-04 10:49 | -37.67821 | 144.84177 | 364 ft | 0 kts | 181° |
| 2026-05-04 10:56 | -37.67868 | 144.84123 | 361 ft | 0 kts | 251° |
| 2026-05-04 10:58 | -37.67871 | 144.84111 | 360 ft | 4 kts | 255° |
| 2026-05-04 10:58 | -37.67869 | 144.84047 | 359 ft | 9 kts | 286° |
| 2026-05-04 10:59 | -37.67833 | 144.83975 | 360 ft | 9 kts | 323° |
| 2026-05-04 10:59 | -37.67770 | 144.83951 | 361 ft | 11 kts | 352° |
| 2026-05-04 10:59 | -37.67496 | 144.83900 | 371 ft | 74 kts | 351° |
| 2026-05-04 10:59 | -37.66761 | 144.83763 | 396 ft | 135 kts | 352° |
| 2026-05-04 11:00 | -37.65684 | 144.83560 | 624 ft | 166 kts | 351° |
| 2026-05-04 11:01 | -37.56794 | 144.83571 | 3564 ft | 246 kts | 19° |
| 2026-05-04 11:02 | -37.55228 | 144.84546 | 3946 ft | 262 kts | 20° |
| 2026-05-04 11:02 | -37.53559 | 144.85594 | 4507 ft | 270 kts | 20° |
| 2026-05-04 11:05 | -37.32671 | 145.11093 | 11830 ft | 384 kts | 51° |
| 2026-05-04 11:06 | -37.31096 | 145.13876 | 12066 ft | 397 kts | 51° |
| 2026-05-04 11:06 | -37.29487 | 145.16715 | 12278 ft | 409 kts | 51° |
| 2026-05-04 11:06 | -37.27815 | 145.19661 | 12511 ft | 419 kts | 51° |
| 2026-05-04 11:06 | -37.26118 | 145.22649 | 12923 ft | 423 kts | 52° |
| 2026-05-04 11:08 | -37.13830 | 145.44203 | 17004 ft | 448 kts | 51° |
| 2026-05-04 11:10 | -37.00766 | 145.66933 | 20364 ft | 471 kts | 50° |
| 2026-05-04 11:12 | -36.87213 | 145.90349 | 22207 ft | 481 kts | 50° |
| 2026-05-04 11:12 | -36.85249 | 145.93729 | 22438 ft | 482 kts | 49° |
| 2026-05-04 11:12 | -36.83293 | 145.97095 | 22654 ft | 484 kts | 49° |
| 2026-05-04 11:12 | -36.81317 | 146.00487 | 22869 ft | 485 kts | 49° |
| 2026-05-04 11:13 | -36.79330 | 146.03896 | 23121 ft | 486 kts | 49° |
| 2026-05-04 11:13 | -36.77352 | 146.07283 | 23354 ft | 487 kts | 49° |
| 2026-05-04 11:13 | -36.75345 | 146.10722 | 23558 ft | 487 kts | 49° |
| 2026-05-04 11:13 | -36.73360 | 146.14121 | 23840 ft | 486 kts | 48° |
| 2026-05-04 11:14 | -36.72710 | 146.15236 | 23941 ft | 486 kts | 48° |
| 2026-05-04 11:16 | -36.53579 | 146.47772 | 26409 ft | 480 kts | 46° |
| 2026-05-04 11:16 | -36.51609 | 146.51102 | 26652 ft | 480 kts | 46° |
| 2026-05-04 11:16 | -36.49649 | 146.54411 | 26913 ft | 479 kts | 46° |
| 2026-05-04 11:17 | -36.47679 | 146.57738 | 27167 ft | 478 kts | 46° |
| 2026-05-04 11:17 | -36.45709 | 146.61061 | 27431 ft | 478 kts | 45° |
| 2026-05-04 11:19 | -36.31954 | 146.84168 | 29110 ft | 473 kts | 44° |
| 2026-05-04 11:19 | -36.29985 | 146.87463 | 29367 ft | 472 kts | 44° |
| 2026-05-04 11:19 | -36.28052 | 146.90694 | 29609 ft | 472 kts | 44° |
| 2026-05-04 11:19 | -36.26074 | 146.93993 | 29814 ft | 472 kts | 44° |
| 2026-05-04 11:20 | -36.24124 | 146.97244 | 30059 ft | 472 kts | 44° |
| 2026-05-04 11:20 | -36.22177 | 147.00488 | 30340 ft | 470 kts | 44° |
| 2026-05-04 11:20 | -36.20226 | 147.03737 | 30565 ft | 470 kts | 44° |
| 2026-05-04 11:20 | -36.18277 | 147.06976 | 30757 ft | 471 kts | 44° |
| 2026-05-04 11:22 | -36.04551 | 147.29742 | 32321 ft | 471 kts | 44° |
| 2026-05-04 11:22 | -36.02609 | 147.32950 | 32568 ft | 470 kts | 44° |
| 2026-05-04 11:23 | -36.00652 | 147.36177 | 32774 ft | 470 kts | 44° |
| 2026-05-04 11:23 | -35.98692 | 147.39407 | 32932 ft | 472 kts | 44° |
| 2026-05-04 11:24 | -35.86853 | 147.58846 | 33957 ft | 476 kts | 44° |
| 2026-05-04 11:25 | -35.84858 | 147.62112 | 34094 ft | 477 kts | 44° |
| 2026-05-04 11:25 | -35.80859 | 147.68652 | 34305 ft | 480 kts | 44° |
| 2026-05-04 11:26 | -35.76841 | 147.75218 | 34554 ft | 481 kts | 44° |
| 2026-05-04 11:27 | -35.62618 | 147.98329 | 35063 ft | 488 kts | 44° |
| 2026-05-04 11:28 | -35.58550 | 148.04921 | 35072 ft | 487 kts | 44° |
| 2026-05-04 11:28 | -35.54452 | 148.11539 | 35079 ft | 487 kts | 44° |
| 2026-05-04 11:29 | -35.50304 | 148.18221 | 35082 ft | 488 kts | 44° |
| 2026-05-04 11:29 | -35.46209 | 148.24809 | 35087 ft | 487 kts | 44° |
| 2026-05-04 11:33 | -35.17328 | 148.70931 | 35079 ft | 488 kts | 43° |
| 2026-05-04 11:33 | -35.13193 | 148.77484 | 35070 ft | 487 kts | 43° |
| 2026-05-04 11:34 | -35.09045 | 148.84042 | 35077 ft | 487 kts | 43° |
| 2026-05-04 11:34 | -35.04917 | 148.90558 | 35086 ft | 488 kts | 43° |
| 2026-05-04 11:35 | -35.00808 | 148.97044 | 34740 ft | 480 kts | 43° |
| 2026-05-04 11:35 | -34.98775 | 149.00249 | 34176 ft | 479 kts | 43° |
| 2026-05-04 11:35 | -34.96737 | 149.03455 | 33607 ft | 479 kts | 42° |
| 2026-05-04 11:36 | -34.94702 | 149.06647 | 33009 ft | 476 kts | 42° |
| 2026-05-04 11:36 | -34.92682 | 149.09813 | 32409 ft | 475 kts | 43° |
| 2026-05-04 11:36 | -34.90683 | 149.12942 | 31753 ft | 474 kts | 43° |
| 2026-05-04 11:36 | -34.88647 | 149.16126 | 31059 ft | 474 kts | 43° |
| 2026-05-04 11:37 | -34.86628 | 149.19281 | 30398 ft | 473 kts | 43° |
| 2026-05-04 11:37 | -34.84627 | 149.22409 | 29806 ft | 470 kts | 43° |
| 2026-05-04 11:37 | -34.82650 | 149.25507 | 29472 ft | 460 kts | 43° |
| 2026-05-04 11:37 | -34.80732 | 149.28514 | 29222 ft | 445 kts | 43° |
| 2026-05-04 11:38 | -34.78856 | 149.31450 | 28747 ft | 436 kts | 43° |
| 2026-05-04 11:38 | -34.76992 | 149.34349 | 28113 ft | 431 kts | 43° |
| 2026-05-04 11:38 | -34.75228 | 149.37253 | 27450 ft | 430 kts | 46° |
| 2026-05-04 11:38 | -34.73581 | 149.40282 | 26853 ft | 428 kts | 49° |
| 2026-05-04 11:39 | -34.72099 | 149.43364 | 26609 ft | 418 kts | 52° |
| 2026-05-04 11:39 | -34.70770 | 149.46403 | 26390 ft | 407 kts | 53° |
| 2026-05-04 11:40 | -34.63280 | 149.63574 | 24255 ft | 373 kts | 52° |
| 2026-05-04 11:41 | -34.62071 | 149.66334 | 23830 ft | 371 kts | 52° |
| 2026-05-04 11:41 | -34.60858 | 149.69096 | 23398 ft | 368 kts | 52° |
| 2026-05-04 11:41 | -34.59666 | 149.71812 | 22982 ft | 366 kts | 52° |
| 2026-05-04 11:41 | -34.58486 | 149.74503 | 22580 ft | 363 kts | 52° |
| 2026-05-04 11:42 | -34.57302 | 149.77193 | 22163 ft | 360 kts | 52° |
| 2026-05-04 11:42 | -34.56127 | 149.79862 | 21758 ft | 357 kts | 52° |
| 2026-05-04 11:42 | -34.54965 | 149.82498 | 21356 ft | 354 kts | 52° |
| 2026-05-04 11:42 | -34.53814 | 149.85107 | 20955 ft | 351 kts | 52° |
| 2026-05-04 11:43 | -34.52669 | 149.87700 | 20551 ft | 348 kts | 53° |
| 2026-05-04 11:43 | -34.51536 | 149.90268 | 20135 ft | 346 kts | 53° |
| 2026-05-04 11:43 | -34.50409 | 149.92822 | 19735 ft | 343 kts | 53° |
| 2026-05-04 11:43 | -34.49287 | 149.95364 | 19332 ft | 340 kts | 53° |
| 2026-05-04 11:44 | -34.48190 | 149.97850 | 18969 ft | 336 kts | 53° |
| 2026-05-04 11:44 | -34.47087 | 150.00346 | 18585 ft | 333 kts | 53° |
| 2026-05-04 11:44 | -34.46001 | 150.02803 | 18185 ft | 330 kts | 53° |
| 2026-05-04 11:44 | -34.44917 | 150.05249 | 17791 ft | 328 kts | 53° |
| 2026-05-04 11:45 | -34.43848 | 150.07658 | 17373 ft | 327 kts | 53° |
| 2026-05-04 11:45 | -34.42766 | 150.10098 | 16941 ft | 326 kts | 53° |
| 2026-05-04 11:45 | -34.41698 | 150.12500 | 16533 ft | 324 kts | 53° |
| 2026-05-04 11:45 | -34.40644 | 150.14871 | 16142 ft | 323 kts | 53° |
| 2026-05-04 11:46 | -34.39586 | 150.17247 | 15721 ft | 322 kts | 53° |
| 2026-05-04 11:46 | -34.38525 | 150.19634 | 15291 ft | 321 kts | 53° |
| 2026-05-04 11:46 | -34.37471 | 150.22000 | 14902 ft | 319 kts | 53° |
| 2026-05-04 11:46 | -34.36418 | 150.24361 | 14521 ft | 316 kts | 53° |
| 2026-05-04 11:47 | -34.35391 | 150.26663 | 14150 ft | 314 kts | 53° |
| 2026-05-04 11:47 | -34.34354 | 150.28984 | 13727 ft | 313 kts | 53° |
| 2026-05-04 11:47 | -34.33322 | 150.31296 | 13329 ft | 312 kts | 53° |
| 2026-05-04 11:47 | -34.32293 | 150.33595 | 12973 ft | 309 kts | 53° |
| 2026-05-04 11:48 | -34.31278 | 150.35864 | 12608 ft | 307 kts | 53° |
| 2026-05-04 11:48 | -34.30262 | 150.38135 | 12238 ft | 305 kts | 53° |
| 2026-05-04 11:48 | -34.29250 | 150.40389 | 11871 ft | 303 kts | 54° |
| 2026-05-04 11:48 | -34.28257 | 150.42606 | 11488 ft | 301 kts | 53° |
| 2026-05-04 11:49 | -34.27261 | 150.44833 | 11116 ft | 300 kts | 54° |
| 2026-05-04 11:49 | -34.26284 | 150.47020 | 10736 ft | 298 kts | 54° |
| 2026-05-04 11:49 | -34.25304 | 150.49213 | 10369 ft | 296 kts | 54° |
| 2026-05-04 11:49 | -34.24327 | 150.51396 | 10008 ft | 294 kts | 54° |
| 2026-05-04 11:50 | -34.23365 | 150.53546 | 9646 ft | 291 kts | 54° |
| 2026-05-04 11:50 | -34.22398 | 150.55705 | 9259 ft | 291 kts | 55° |
| 2026-05-04 11:50 | -34.21443 | 150.57834 | 8886 ft | 289 kts | 55° |
| 2026-05-04 11:50 | -34.20485 | 150.59972 | 8512 ft | 287 kts | 55° |
| 2026-05-04 11:51 | -34.19547 | 150.62064 | 8129 ft | 287 kts | 55° |
| 2026-05-04 11:51 | -34.18589 | 150.64194 | 7745 ft | 286 kts | 56° |
| 2026-05-04 11:51 | -34.17652 | 150.66278 | 7367 ft | 285 kts | 55° |
| 2026-05-04 11:51 | -34.16707 | 150.68379 | 6977 ft | 284 kts | 56° |
| 2026-05-04 11:52 | -34.15774 | 150.70454 | 6584 ft | 283 kts | 56° |
| 2026-05-04 11:52 | -34.14830 | 150.72549 | 6179 ft | 283 kts | 56° |
| 2026-05-04 11:52 | -34.13898 | 150.74623 | 5991 ft | 280 kts | 56° |
| 2026-05-04 11:52 | -34.12966 | 150.76691 | 5992 ft | 281 kts | 56° |
| 2026-05-04 11:53 | -34.12021 | 150.78786 | 5991 ft | 281 kts | 56° |
| 2026-05-04 11:53 | -34.11086 | 150.80859 | 5989 ft | 281 kts | 56° |
| 2026-05-04 11:53 | -34.10154 | 150.82924 | 5984 ft | 281 kts | 56° |
| 2026-05-04 11:53 | -34.09216 | 150.85011 | 5986 ft | 281 kts | 56° |
| 2026-05-04 11:55 | -34.03033 | 150.99776 | 5949 ft | 294 kts | 86° |
| 2026-05-04 11:55 | -34.03529 | 151.02144 | 5958 ft | 300 kts | 120° |
| 2026-05-04 11:56 | -34.04897 | 151.04054 | 5973 ft | 302 kts | 136° |
| 2026-05-04 11:56 | -34.06398 | 151.05798 | 5874 ft | 297 kts | 136° |
| 2026-05-04 11:56 | -34.08013 | 151.07369 | 5475 ft | 296 kts | 151° |
| 2026-05-04 11:56 | -34.09878 | 151.08290 | 5220 ft | 286 kts | 168° |
| 2026-05-04 11:57 | -34.11803 | 151.08801 | 5056 ft | 276 kts | 172° |
| 2026-05-04 11:57 | -34.13658 | 151.09225 | 4897 ft | 267 kts | 172° |
| 2026-05-04 11:57 | -34.15482 | 151.09653 | 4639 ft | 264 kts | 171° |
| 2026-05-04 11:57 | -34.17249 | 151.10088 | 4471 ft | 255 kts | 171° |
| 2026-05-04 11:58 | -34.18956 | 151.10522 | 4288 ft | 248 kts | 171° |
| 2026-05-04 11:58 | -34.20633 | 151.10962 | 4007 ft | 245 kts | 166° |
| 2026-05-04 11:58 | -34.22136 | 151.11881 | 3690 ft | 244 kts | 135° |
| 2026-05-04 11:58 | -34.23032 | 151.13565 | 3379 ft | 236 kts | 101° |
| 2026-05-04 11:59 | -34.23052 | 151.15479 | 3052 ft | 222 kts | 65° |
| 2026-05-04 11:59 | -34.22220 | 151.16951 | 2981 ft | 210 kts | 31° |
| 2026-05-04 11:59 | -34.20943 | 151.17725 | 2994 ft | 207 kts | 16° |
| 2026-05-04 11:59 | -34.19570 | 151.18292 | 2979 ft | 206 kts | 14° |
| 2026-05-04 12:00 | -34.18200 | 151.18816 | 2974 ft | 206 kts | 13° |
| 2026-05-04 12:00 | -34.16816 | 151.19336 | 2975 ft | 205 kts | 13° |
| 2026-05-04 12:00 | -34.15456 | 151.19849 | 2886 ft | 201 kts | 14° |
| 2026-05-04 12:00 | -34.14148 | 151.20534 | 2422 ft | 206 kts | 23° |
| 2026-05-04 12:01 | -34.12848 | 151.21291 | 1917 ft | 207 kts | 21° |
| 2026-05-04 12:01 | -34.11517 | 151.21980 | 1544 ft | 205 kts | 13° |
| 2026-05-04 12:02 | -34.03472 | 151.19902 | 1427 ft | 167 kts | 347° |
| 2026-05-04 12:03 | -34.02401 | 151.19634 | 1268 ft | 146 kts | 347° |
| 2026-05-04 12:03 | -34.01458 | 151.19398 | 1007 ft | 134 kts | 347° |
| 2026-05-04 12:03 | -34.00548 | 151.19150 | 703 ft | 137 kts | 347° |
| 2026-05-04 12:03 | -33.99583 | 151.18874 | 619 ft | 143 kts | 347° |
| 2026-05-04 12:04 | -33.98600 | 151.18616 | 474 ft | 143 kts | 348° |
| 2026-05-04 12:04 | -33.97655 | 151.18368 | 260 ft | 136 kts | 348° |
| 2026-05-04 12:04 | -33.96733 | 151.18140 | 120 ft | 136 kts | 349° |
| 2026-05-04 12:04 | -33.95821 | 151.17899 | 16 ft | 124 kts | 352° |
| 2026-05-04 12:05 | -33.95126 | 151.17728 | 18 ft | 76 kts | 348° |
| 2026-05-04 12:05 | -33.94780 | 151.17635 | 22 ft | 26 kts | 346° |
| 2026-05-04 12:05 | -33.94637 | 151.17593 | 23 ft | 19 kts | 344° |
| 2026-05-04 12:05 | -33.94510 | 151.17525 | 22 ft | 19 kts | 331° |
| 2026-05-04 12:06 | -33.94398 | 151.17432 | 22 ft | 19 kts | 319° |
| 2026-05-04 12:06 | -33.94299 | 151.17325 | 21 ft | 19 kts | 322° |
| 2026-05-04 12:06 | -33.94173 | 151.17276 | 20 ft | 19 kts | 346° |
| 2026-05-04 12:06 | -33.94044 | 151.17242 | 20 ft | 18 kts | 346° |
| 2026-05-04 12:07 | -33.93981 | 151.17142 | 22 ft | 11 kts | 282° |
| 2026-05-04 12:07 | -33.93922 | 151.17090 | 23 ft | 10 kts | 343° |
| 2026-05-04 12:07 | -33.93903 | 151.17062 | 24 ft | 3 kts | 255° |
| 2026-05-04 12:07 | -33.93913 | 151.17033 | 24 ft | 3 kts | 249° |
| 2026-05-04 12:08 | -33.93921 | 151.17007 | 25 ft | 3 kts | 254° |
| 2026-05-04 12:08 | -33.93926 | 151.16985 | 25 ft | 1 kts | 255° |
| 2026-05-04 12:08 | -33.93927 | 151.16978 | 25 ft | 0 kts | 255° |